sensor_id;sensor_type;location;lat;lon;timestamp;temperature;humidity
58153;DHT22;43967;51.634;5.566;2024-02-21T08:43:40;16.50;69.20
58153;DHT22;43967;51.634;5.566;2024-02-21T08:49:02;16.50;70.50
58153;DHT22;43967;51.634;5.566;2024-02-21T08:54:23;16.70;70.50
58153;DHT22;43967;51.634;5.566;2024-02-21T08:59:44;17.00;70.10
58153;DHT22;43967;51.634;5.566;2024-02-21T09:05:06;17.20;69.70
58153;DHT22;43967;51.634;5.566;2024-02-21T09:10:27;17.40;69.40
58153;DHT22;43967;51.634;5.566;2024-02-21T09:15:48;17.60;69.20
58153;DHT22;43967;51.634;5.566;2024-02-21T09:21:10;17.70;69.00
58153;DHT22;43967;51.634;5.566;2024-02-21T09:26:31;17.80;68.80
58153;DHT22;43967;51.634;5.566;2024-02-21T09:31:52;17.80;68.60
58153;DHT22;43967;51.634;5.566;2024-02-21T09:37:14;17.90;68.50
58153;DHT22;43967;51.634;5.566;2024-02-21T09:42:40;18.00;68.40
58153;DHT22;43967;51.634;5.566;2024-02-21T09:48:30;18.00;68.10
58153;DHT22;43967;51.634;5.566;2024-02-21T09:53:54;18.10;67.70
58153;DHT22;43967;51.634;5.566;2024-02-21T09:59:17;18.20;67.70
58153;DHT22;43967;51.634;5.566;2024-02-21T10:04:40;18.20;67.50
58153;DHT22;43967;51.634;5.566;2024-02-21T10:10:05;18.30;67.50
58153;DHT22;43967;51.634;5.566;2024-02-21T10:15:26;18.30;67.40
58153;DHT22;43967;51.634;5.566;2024-02-21T10:20:48;18.30;67.20
58153;DHT22;43967;51.634;5.566;2024-02-21T10:26:09;18.40;67.10
58153;DHT22;43967;51.634;5.566;2024-02-21T10:31:30;18.40;66.90
58153;DHT22;43967;51.634;5.566;2024-02-21T10:37:06;18.40;66.70
58153;DHT22;43967;51.634;5.566;2024-02-21T10:42:29;18.50;66.40
58153;DHT22;43967;51.634;5.566;2024-02-21T10:47:55;18.50;66.30
58153;DHT22;43967;51.634;5.566;2024-02-21T10:53:24;18.50;66.10
58153;DHT22;43967;51.634;5.566;2024-02-21T10:58:49;18.50;66.00
58153;DHT22;43967;51.634;5.566;2024-02-21T11:04:11;18.50;65.80
58153;DHT22;43967;51.634;5.566;2024-02-21T11:09:33;18.50;65.50
58153;DHT22;43967;51.634;5.566;2024-02-21T11:15:07;18.60;65.60
58153;DHT22;43967;51.634;5.566;2024-02-21T11:20:37;18.60;65.20
58153;DHT22;43967;51.634;5.566;2024-02-21T11:26:06;18.70;65.10
58153;DHT22;43967;51.634;5.566;2024-02-21T11:31:41;18.70;65.20
58153;DHT22;43967;51.634;5.566;2024-02-21T11:37:13;18.70;65.50
58153;DHT22;43967;51.634;5.566;2024-02-21T11:42:35;18.60;65.80
58153;DHT22;43967;51.634;5.566;2024-02-21T11:47:57;18.70;66.10
58153;DHT22;43967;51.634;5.566;2024-02-21T11:53:18;18.60;66.20
58153;DHT22;43967;51.634;5.566;2024-02-21T11:58:39;18.60;66.30
58153;DHT22;43967;51.634;5.566;2024-02-21T12:04:00;18.60;66.50
58153;DHT22;43967;51.634;5.566;2024-02-21T12:09:23;18.60;66.70
58153;DHT22;43967;51.634;5.566;2024-02-21T12:14:45;18.70;67.00
58153;DHT22;43967;51.634;5.566;2024-02-21T12:20:06;18.70;67.10
58153;DHT22;43967;51.634;5.566;2024-02-21T12:25:28;18.70;67.30
58153;DHT22;43967;51.634;5.566;2024-02-21T12:30:49;18.70;67.30
58153;DHT22;43967;51.634;5.566;2024-02-21T12:36:10;18.80;67.40
58153;DHT22;43967;51.634;5.566;2024-02-21T12:41:32;18.80;67.50
58153;DHT22;43967;51.634;5.566;2024-02-21T12:46:53;18.90;67.60
58153;DHT22;43967;51.634;5.566;2024-02-21T12:52:14;18.90;67.60
58153;DHT22;43967;51.634;5.566;2024-02-21T12:57:35;18.90;67.70
58153;DHT22;43967;51.634;5.566;2024-02-21T13:02:57;19.00;67.70
58153;DHT22;43967;51.634;5.566;2024-02-21T13:08:18;19.00;67.50
58153;DHT22;43967;51.634;5.566;2024-02-21T13:13:39;19.00;67.60
58153;DHT22;43967;51.634;5.566;2024-02-21T13:19:00;19.00;67.60
58153;DHT22;43967;51.634;5.566;2024-02-21T13:24:22;19.10;67.70
58153;DHT22;43967;51.634;5.566;2024-02-21T13:29:43;19.10;67.60
58153;DHT22;43967;51.634;5.566;2024-02-21T13:35:04;19.20;67.70
58153;DHT22;43967;51.634;5.566;2024-02-21T13:40:25;19.20;67.70
58153;DHT22;43967;51.634;5.566;2024-02-21T13:45:56;19.20;67.70
58153;DHT22;43967;51.634;5.566;2024-02-21T13:51:18;19.30;67.60
58153;DHT22;43967;51.634;5.566;2024-02-21T13:56:39;19.30;67.60
58153;DHT22;43967;51.634;5.566;2024-02-21T14:02:00;19.40;67.60
58153;DHT22;43967;51.634;5.566;2024-02-21T14:07:21;19.40;67.60
58153;DHT22;43967;51.634;5.566;2024-02-21T14:12:43;19.40;67.50
58153;DHT22;43967;51.634;5.566;2024-02-21T14:18:04;19.50;67.40
58153;DHT22;43967;51.634;5.566;2024-02-21T14:23:25;19.50;67.20
58153;DHT22;43967;51.634;5.566;2024-02-21T14:28:47;19.50;67.20
58153;DHT22;43967;51.634;5.566;2024-02-21T14:34:08;19.50;67.10
58153;DHT22;43967;51.634;5.566;2024-02-21T14:39:29;19.50;66.90
58153;DHT22;43967;51.634;5.566;2024-02-21T14:44:51;19.50;66.80
58153;DHT22;43967;51.634;5.566;2024-02-21T14:50:12;19.50;66.40
58153;DHT22;43967;51.634;5.566;2024-02-21T14:55:34;19.50;66.20
58153;DHT22;43967;51.634;5.566;2024-02-21T15:00:55;19.50;66.10
58153;DHT22;43967;51.634;5.566;2024-02-21T15:06:17;19.50;65.90
58153;DHT22;43967;51.634;5.566;2024-02-21T15:11:38;19.40;65.70
58153;DHT22;43967;51.634;5.566;2024-02-21T15:16:59;19.40;65.60
58153;DHT22;43967;51.634;5.566;2024-02-21T15:22:20;19.40;65.40
58153;DHT22;43967;51.634;5.566;2024-02-21T15:27:42;19.40;65.40
58153;DHT22;43967;51.634;5.566;2024-02-21T15:33:04;19.40;65.20
58153;DHT22;43967;51.634;5.566;2024-02-21T15:38:25;19.40;65.80
58153;DHT22;43967;51.634;5.566;2024-02-21T15:43:46;19.40;65.00
58153;DHT22;43967;51.634;5.566;2024-02-21T15:49:08;19.40;64.90
58153;DHT22;43967;51.634;5.566;2024-02-21T15:54:29;19.40;64.80
58153;DHT22;43967;51.634;5.566;2024-02-21T15:59:50;19.40;64.80
58153;DHT22;43967;51.634;5.566;2024-02-21T16:05:11;19.40;64.60
58153;DHT22;43967;51.634;5.566;2024-02-21T16:10:33;19.30;64.50
58153;DHT22;43967;51.634;5.566;2024-02-21T16:15:54;19.30;64.40
58153;DHT22;43967;51.634;5.566;2024-02-21T16:21:15;19.30;64.30
58153;DHT22;43967;51.634;5.566;2024-02-21T16:26:37;19.30;64.10
58153;DHT22;43967;51.634;5.566;2024-02-21T16:31:59;19.30;64.00
58153;DHT22;43967;51.634;5.566;2024-02-21T16:37:20;19.30;64.00
58153;DHT22;43967;51.634;5.566;2024-02-21T16:42:41;19.30;63.90
58153;DHT22;43967;51.634;5.566;2024-02-21T16:48:03;19.30;63.70
58153;DHT22;43967;51.634;5.566;2024-02-21T16:53:24;19.30;63.60
58153;DHT22;43967;51.634;5.566;2024-02-21T16:58:46;19.30;63.60
58153;DHT22;43967;51.634;5.566;2024-02-21T17:04:07;19.30;63.30
58153;DHT22;43967;51.634;5.566;2024-02-21T17:09:28;19.30;62.90
58153;DHT22;43967;51.634;5.566;2024-02-21T17:14:50;19.30;62.60
58153;DHT22;43967;51.634;5.566;2024-02-21T17:20:11;19.30;62.40
58153;DHT22;43967;51.634;5.566;2024-02-21T17:25:32;19.30;62.20
58153;DHT22;43967;51.634;5.566;2024-02-21T17:30:54;19.20;61.90
58153;DHT22;43967;51.634;5.566;2024-02-21T17:36:15;19.20;61.60
58153;DHT22;43967;51.634;5.566;2024-02-21T17:41:36;19.20;62.20
58153;DHT22;43967;51.634;5.566;2024-02-21T17:46:58;19.20;61.50
58153;DHT22;43967;51.634;5.566;2024-02-21T17:52:19;19.20;61.50
58153;DHT22;43967;51.634;5.566;2024-02-21T17:57:40;19.30;61.50
58153;DHT22;43967;51.634;5.566;2024-02-21T18:03:02;19.20;61.40
58153;DHT22;43967;51.634;5.566;2024-02-21T18:08:23;19.20;61.50
58153;DHT22;43967;51.634;5.566;2024-02-21T18:13:44;19.20;61.40
58153;DHT22;43967;51.634;5.566;2024-02-21T18:19:06;19.20;61.50
58153;DHT22;43967;51.634;5.566;2024-02-21T18:24:27;19.20;61.50
58153;DHT22;43967;51.634;5.566;2024-02-21T18:29:50;19.20;61.50
58153;DHT22;43967;51.634;5.566;2024-02-21T18:35:11;19.20;63.20
58153;DHT22;43967;51.634;5.566;2024-02-21T18:40:32;19.30;65.90
58153;DHT22;43967;51.634;5.566;2024-02-21T18:45:54;19.40;67.50
58153;DHT22;43967;51.634;5.566;2024-02-21T18:51:16;19.50;68.00
58153;DHT22;43967;51.634;5.566;2024-02-21T18:56:39;19.40;68.30
58153;DHT22;43967;51.634;5.566;2024-02-21T19:02:00;19.40;68.40
58153;DHT22;43967;51.634;5.566;2024-02-21T19:07:21;19.40;68.20
58153;DHT22;43967;51.634;5.566;2024-02-21T19:12:42;19.30;67.90
58153;DHT22;43967;51.634;5.566;2024-02-21T19:18:04;19.30;67.60
58153;DHT22;43967;51.634;5.566;2024-02-21T19:23:25;19.30;67.20
58153;DHT22;43967;51.634;5.566;2024-02-21T19:28:47;19.30;66.90
58153;DHT22;43967;51.634;5.566;2024-02-21T19:34:11;19.30;66.70
58153;DHT22;43967;51.634;5.566;2024-02-21T19:39:32;19.30;66.30
58153;DHT22;43967;51.634;5.566;2024-02-21T19:44:53;19.30;66.00
58153;DHT22;43967;51.634;5.566;2024-02-21T19:50:15;19.30;65.80
58153;DHT22;43967;51.634;5.566;2024-02-21T19:55:36;19.30;65.60
58153;DHT22;43967;51.634;5.566;2024-02-21T20:00:57;19.30;65.40
58153;DHT22;43967;51.634;5.566;2024-02-21T20:06:18;19.30;65.20
58153;DHT22;43967;51.634;5.566;2024-02-21T20:11:40;19.30;65.10
58153;DHT22;43967;51.634;5.566;2024-02-21T20:17:01;19.20;64.90
58153;DHT22;43967;51.634;5.566;2024-02-21T20:22:22;19.20;64.80
58153;DHT22;43967;51.634;5.566;2024-02-21T20:27:43;19.20;64.70
58153;DHT22;43967;51.634;5.566;2024-02-21T20:33:05;19.20;64.50
58153;DHT22;43967;51.634;5.566;2024-02-21T20:38:26;19.20;64.40
58153;DHT22;43967;51.634;5.566;2024-02-21T20:43:48;19.20;64.30
58153;DHT22;43967;51.634;5.566;2024-02-21T20:49:09;19.20;64.20
58153;DHT22;43967;51.634;5.566;2024-02-21T20:54:31;19.20;64.10
58153;DHT22;43967;51.634;5.566;2024-02-21T20:59:52;19.20;64.00
58153;DHT22;43967;51.634;5.566;2024-02-21T21:05:14;19.10;63.90
58153;DHT22;43967;51.634;5.566;2024-02-21T21:10:35;19.20;63.90
58153;DHT22;43967;51.634;5.566;2024-02-21T21:16:00;19.10;63.80
58153;DHT22;43967;51.634;5.566;2024-02-21T21:21:21;19.10;63.70
58153;DHT22;43967;51.634;5.566;2024-02-21T21:26:42;19.10;63.60
58153;DHT22;43967;51.634;5.566;2024-02-21T21:32:04;19.10;63.60
58153;DHT22;43967;51.634;5.566;2024-02-21T21:37:25;19.10;63.60
58153;DHT22;43967;51.634;5.566;2024-02-21T21:42:47;19.10;63.40
58153;DHT22;43967;51.634;5.566;2024-02-21T21:48:08;19.10;63.50
58153;DHT22;43967;51.634;5.566;2024-02-21T21:53:29;19.10;63.40
58153;DHT22;43967;51.634;5.566;2024-02-21T21:58:50;19.10;63.40
58153;DHT22;43967;51.634;5.566;2024-02-21T22:04:12;19.10;63.40
58153;DHT22;43967;51.634;5.566;2024-02-21T22:09:33;19.10;63.30
58153;DHT22;43967;51.634;5.566;2024-02-21T22:14:54;19.10;63.30
58153;DHT22;43967;51.634;5.566;2024-02-21T22:20:15;19.10;63.40
58153;DHT22;43967;51.634;5.566;2024-02-21T22:25:37;19.10;63.40
58153;DHT22;43967;51.634;5.566;2024-02-21T22:30:58;19.00;63.30
58153;DHT22;43967;51.634;5.566;2024-02-21T22:36:19;19.00;63.30
58153;DHT22;43967;51.634;5.566;2024-02-21T22:41:40;19.00;63.30
58153;DHT22;43967;51.634;5.566;2024-02-21T22:47:02;19.00;63.30
58153;DHT22;43967;51.634;5.566;2024-02-21T22:52:23;19.00;63.30
58153;DHT22;43967;51.634;5.566;2024-02-21T22:57:44;19.00;63.30
58153;DHT22;43967;51.634;5.566;2024-02-21T23:03:05;19.00;63.20
58153;DHT22;43967;51.634;5.566;2024-02-21T23:08:27;19.00;63.30
58153;DHT22;43967;51.634;5.566;2024-02-21T23:13:48;19.00;63.20
58153;DHT22;43967;51.634;5.566;2024-02-21T23:19:09;19.00;63.20
58153;DHT22;43967;51.634;5.566;2024-02-21T23:24:33;19.00;63.20
58153;DHT22;43967;51.634;5.566;2024-02-21T23:29:54;19.00;63.20
58153;DHT22;43967;51.634;5.566;2024-02-21T23:35:15;19.00;63.20
58153;DHT22;43967;51.634;5.566;2024-02-21T23:40:36;19.00;63.20
58153;DHT22;43967;51.634;5.566;2024-02-21T23:45:58;18.90;63.10
58153;DHT22;43967;51.634;5.566;2024-02-21T23:51:19;18.90;63.10
58153;DHT22;43967;51.634;5.566;2024-02-21T23:56:44;18.90;63.10
